Terminal Aerodrome Forecast
Issued by NWS Sterling, VA

Current Version | Previous Version | Graphics & Text | Print | Product List | Glossary On
Versions: 1 2 3 4 5 6 7 8 9 10 11 12 13 14
000
FTUS41 KLWX 310531
TAFMRB
TAF
KMRB 310531Z 3106/0106 VRB03KT P6SM FEW050
     FM310900 00000KT 3SM BR FEW050
     FM311200 VRB02KT P6SM SCT050
     FM311900 17005KT P6SM VCSH BKN050=

USA.gov is the U.S. government's official web portal to all federal, state and local government web resources and services.